メインページ
METAR-TAF:

METAR-TAF

空港 :

Griffiss_Air_Force_Base

Rome, ニューヨーク, アメリカ合衆国

緯度: 43-14N, 経度: 075-24W, 海抜: 154m

現時点の気象観測

当レポートは14分前の05:53(UTC)に作成
西の風 3kt
気温 7°C
湿度 87%
気圧 1015 hPa
視程: 16.1km
高度500ftの雲は散在している
高度900ftの曇り

METAR: KRME 040553Z AUTO 28003KT 10SM SCT005 OVC009 07/05 A2998 RMK AO2 SLP153 60001 T00670050 10083 20067 53004

時間: 02:07 (06:07 UTC)

予報

当レポートは34分前の05:33(UTC)に作成
予報は04日の 06時(UTC)から 05日の 06時(UTC)まで有効
変向風 3kt
視程: 9.7km
高度800ftの千切れ雲あり
04日の 1300時(UTC)から
の風 kt
視程: 9.7km
高度1100ftの千切れ雲あり
04日の 1500時(UTC)から
の風 kt
視程: 10km
高度2500ftの千切れ雲あり

TAF: KRME 040533Z 0406/0506 VRB03KT 6SM BR BKN008 FM041300 00000KT 6SM BR BKN011 FM041500 00000KT P6SM BKN025

4,000以上の空港の気象観測と天気予報(METAR報とTAF報)

利用可能な観測所は地図上に黄色い丸と赤い丸で示す。

丸の上にカーソルを重ねると観測所名を参照できる。

次にクリックすると気象観測と天気予報を参照できる。

マップの切り替え:黒色「×」印の緑ボタンをクリックして拡大、「-」印の緑ボタンをクリックして縮小、緑色の三角印をクリックして隣りの地図に切り替え


METAR-TAF: